»·PEaware :: DAL1862 KSNA-KPSP

DAL1862 :: KSNA-KPSP

FLIGHT INFORMATION

Flight Status: Arrived
Operator:
Delta Air Lines
More flights by this operator :: More flights under this callsign
Pilot: Eric G. (5941)
Aircraft: LOCKHEED L-1011 TRI-STAR
(L101)
More flights by this aircraft type
Origin: KSNA John Wayne-Orange Co
United States
Destination: KPSP Palm Springs Intl
United States
More flights between these airports :: More routes between these airports
Route: +MUSEL7 TRM
File this flight plan on PilotEdge
Remarks:
Altitude:
(Current/Filed)
17,000ft
Speed:
(Current/Filed)
225kts
Departed: 20-Dec-15 10:49 AM
Arrived: 20-Dec-15 11:17 AM
Distance/Time
Traveled:
68nm/0:28
Distance/Time
To Go:
Arrived

Flight Plot

Page will automatically refresh every two minutes.


Map Options




Map Legend


Flown Route
Filed Route
Departure Airport
Arrival Airport
Navaid (VOR, NDB)
Fix

Horizontal Profiles

Position Reports

Time Latitude Longitude Heading Altitude Ground
Speed
20-Dec-15 10:26 33.678363 -117.862690 116 72ft 0kts
20-Dec-15 10:27 33.678363 -117.862690 116 72ft 0kts
20-Dec-15 10:28 33.678363 -117.862690 116 72ft 0kts
20-Dec-15 10:29 33.678363 -117.862690 116 72ft 0kts
20-Dec-15 10:30 33.678363 -117.862690 116 72ft 0kts
20-Dec-15 10:31 33.678363 -117.862690 116 72ft 0kts
20-Dec-15 10:32 33.678363 -117.862690 116 72ft 0kts
20-Dec-15 10:33 33.678493 -117.863007 116 72ft 2kts
20-Dec-15 10:34 33.678649 -117.862934 48 72ft 6kts
20-Dec-15 10:35 33.678759 -117.862859 22 72ft 0kts
20-Dec-15 10:36 33.678759 -117.862859 22 72ft 0kts
20-Dec-15 10:37 33.678759 -117.862859 22 72ft 0kts
20-Dec-15 10:38 33.678759 -117.862859 22 72ft 0kts
20-Dec-15 10:39 33.678759 -117.862859 22 72ft 0kts
20-Dec-15 10:40 33.678953 -117.862761 22 72ft 3kts
20-Dec-15 10:41 33.680425 -117.862752 306 72ft 5kts
20-Dec-15 10:42 33.680487 -117.862867 301 72ft 0kts
20-Dec-15 10:43 33.680489 -117.862872 301 72ft 0kts
20-Dec-15 10:44 33.681410 -117.864808 288 72ft 4kts
20-Dec-15 10:45 33.657258 -117.879771 205 783ft 155kts
20-Dec-15 10:46 33.615622 -117.891029 190 2027ft 197kts
20-Dec-15 10:47 33.559870 -117.905766 190 3514ft 201kts
20-Dec-15 10:48 33.505865 -117.916839 188 5695ft 209kts
20-Dec-15 10:49 33.466894 -117.875057 93 7763ft 218kts
20-Dec-15 10:50 33.468195 -117.798991 85 10044ft 237kts
20-Dec-15 10:51 33.470600 -117.716785 85 11753ft 255kts
20-Dec-15 10:52 33.472468 -117.638955 85 13278ft 267kts
20-Dec-15 10:53 33.474841 -117.552177 85 14912ft 277kts
20-Dec-15 10:54 33.480886 -117.458928 81 16745ft 284kts
20-Dec-15 10:55 33.489266 -117.363842 81 16303ft 277kts
20-Dec-15 10:56 33.497068 -117.273259 81 15048ft 268kts
20-Dec-15 10:57 33.505081 -117.180174 81 15006ft 285kts
20-Dec-15 10:58 33.513178 -117.086357 81 15000ft 284kts
20-Dec-15 10:59 33.521837 -116.992560 78 14989ft 283kts
20-Dec-15 11:00 33.534657 -116.899355 78 14995ft 282kts
20-Dec-15 11:01 33.546400 -116.807664 78 14994ft 267kts
20-Dec-15 11:02 33.557147 -116.721077 78 13787ft 230kts
20-Dec-15 11:03 33.564673 -116.654089 77 12171ft 193kts
20-Dec-15 11:04 33.584895 -116.588743 63 10440ft 209kts
20-Dec-15 11:05 33.607767 -116.527625 63 8638ft 194kts
20-Dec-15 11:06 33.631068 -116.474192 58 6894ft 160kts
20-Dec-15 11:07 33.655759 -116.430194 54 5183ft 157kts
20-Dec-15 11:08 33.691300 -116.400680 9 4192ft 161kts
20-Dec-15 11:09 33.731614 -116.415395 316 2890ft 142kts
20-Dec-15 11:10 33.761798 -116.446920 321 2155ft 167kts
20-Dec-15 11:11 33.795494 -116.477309 321 1064ft 148kts
20-Dec-15 11:12 33.825418 -116.503873 323 494ft 95kts
20-Dec-15 11:13 33.833334 -116.511016 312 493ft 7kts
20-Dec-15 11:14 33.833233 -116.512391 218 493ft 0kts
20-Dec-15 11:15 33.831647 -116.511503 140 493ft 18kts
20-Dec-15 11:16 33.826629 -116.507112 166 493ft 17kts
20-Dec-15 11:17 33.824867 -116.507182 122 493ft 0kts
20-Dec-15 11:18 33.824867 -116.507182 122 493ft 0kts
20-Dec-15 11:19 33.824867 -116.507182 122 493ft 0kts
20-Dec-15 11:20 33.824867 -116.507182 122 493ft 0kts
20-Dec-15 11:21 33.824867 -116.507182 122 493ft 0kts
20-Dec-15 11:22 33.824867 -116.507182 122 493ft 0kts
20-Dec-15 11:23 33.824867 -116.507182 122 493ft 0kts
20-Dec-15 11:24 33.824867 -116.507182 122 493ft 0kts
20-Dec-15 11:25 33.824867 -116.507182 122 493ft 0kts
20-Dec-15 11:26 33.824867 -116.507182 122 493ft 0kts
20-Dec-15 11:27 33.824867 -116.507182 122 493ft 0kts

Navigation Log

Ident Type
Flight plan parsing failed, navigation log unavailable